sensor_id;sensor_type;location;lat;lon;timestamp;pressure;altitude;pressure_sealevel;temperature;humidity
77124;BME280;66079;47.646;19.130;2023-04-15T00:01:02;99404.09;;;5.90;86.75
77124;BME280;66079;47.646;19.130;2023-04-15T00:04:05;99409.47;;;5.88;86.75
77124;BME280;66079;47.646;19.130;2023-04-15T00:07:08;99395.91;;;5.80;86.75
77124;BME280;66079;47.646;19.130;2023-04-15T00:10:10;99401.34;;;5.91;86.64
77124;BME280;66079;47.646;19.130;2023-04-15T00:13:12;99404.75;;;6.05;86.10
77124;BME280;66079;47.646;19.130;2023-04-15T00:16:15;99404.75;;;6.05;86.64
77124;BME280;66079;47.646;19.130;2023-04-15T00:19:19;99410.31;;;6.08;87.31
77124;BME280;66079;47.646;19.130;2023-04-15T00:22:22;99397.63;;;6.13;87.20
77124;BME280;66079;47.646;19.130;2023-04-15T00:25:25;99397.03;;;6.11;86.31
77124;BME280;66079;47.646;19.130;2023-04-15T00:28:28;99415.06;;;6.05;86.95
77124;BME280;66079;47.646;19.130;2023-04-15T00:31:32;99404.00;;;6.17;87.19
77124;BME280;66079;47.646;19.130;2023-04-15T00:34:35;99409.53;;;6.27;86.97
77124;BME280;66079;47.646;19.130;2023-04-15T00:37:38;99410.31;;;6.15;86.97
77124;BME280;66079;47.646;19.130;2023-04-15T00:40:41;99404.16;;;6.09;86.92
77124;BME280;66079;47.646;19.130;2023-04-15T00:43:44;99407.94;;;6.20;86.64
77124;BME280;66079;47.646;19.130;2023-04-15T00:46:47;99413.31;;;6.25;86.56
77124;BME280;66079;47.646;19.130;2023-04-15T00:49:52;99409.16;;;6.11;87.26
77124;BME280;66079;47.646;19.130;2023-04-15T00:52:54;99399.41;;;6.13;87.42
77124;BME280;66079;47.646;19.130;2023-04-15T00:55:57;99379.97;;;6.10;87.90
77124;BME280;66079;47.646;19.130;2023-04-15T00:59:00;99392.47;;;6.26;87.89
77124;BME280;66079;47.646;19.130;2023-04-15T01:02:04;99393.06;;;6.22;87.62
77124;BME280;66079;47.646;19.130;2023-04-15T01:05:07;99379.16;;;6.23;87.24
77124;BME280;66079;47.646;19.130;2023-04-15T01:08:09;99404.00;;;6.17;87.28
77124;BME280;66079;47.646;19.130;2023-04-15T01:11:12;99389.28;;;6.18;87.17
77124;BME280;66079;47.646;19.130;2023-04-15T01:14:14;99373.59;;;6.06;87.05
77124;BME280;66079;47.646;19.130;2023-04-15T01:17:17;99399.41;;;6.26;87.17
77124;BME280;66079;47.646;19.130;2023-04-15T01:20:20;99384.13;;;6.31;87.21
77124;BME280;66079;47.646;19.130;2023-04-15T01:23:23;99376.00;;;6.27;87.13
77124;BME280;66079;47.646;19.130;2023-04-15T01:26:26;99360.50;;;6.21;87.01
77124;BME280;66079;47.646;19.130;2023-04-15T01:29:30;99387.94;;;6.41;87.54
77124;BME280;66079;47.646;19.130;2023-04-15T01:32:35;99388.53;;;6.37;86.97
77124;BME280;66079;47.646;19.130;2023-04-15T01:35:38;99383.16;;;6.32;87.09
77124;BME280;66079;47.646;19.130;2023-04-15T01:38:41;99376.59;;;6.29;86.76
77124;BME280;66079;47.646;19.130;2023-04-15T01:41:43;99371.44;;;6.23;86.51
77124;BME280;66079;47.646;19.130;2023-04-15T01:44:46;99386.50;;;6.26;86.79
77124;BME280;66079;47.646;19.130;2023-04-15T01:47:49;99381.34;;;6.26;87.03
77124;BME280;66079;47.646;19.130;2023-04-15T01:50:53;99401.03;;;6.40;87.01
77124;BME280;66079;47.646;19.130;2023-04-15T01:53:58;99392.88;;;6.36;86.47
77124;BME280;66079;47.646;19.130;2023-04-15T01:57:00;99390.91;;;6.32;87.17
77124;BME280;66079;47.646;19.130;2023-04-15T02:00:05;99399.06;;;6.35;86.54
77124;BME280;66079;47.646;19.130;2023-04-15T02:03:17;99406.81;;;6.42;87.01
77124;BME280;66079;47.646;19.130;2023-04-15T02:06:20;99404.78;;;6.44;86.42
77124;BME280;66079;47.646;19.130;2023-04-15T02:09:23;99404.38;;;6.47;86.78
77124;BME280;66079;47.646;19.130;2023-04-15T02:12:25;99400.44;;;6.51;86.28
77124;BME280;66079;47.646;19.130;2023-04-15T02:15:28;99386.31;;;6.34;86.54
77124;BME280;66079;47.646;19.130;2023-04-15T02:18:31;99388.13;;;6.46;86.72
77124;BME280;66079;47.646;19.130;2023-04-15T02:21:34;99395.28;;;6.51;86.42
77124;BME280;66079;47.646;19.130;2023-04-15T02:24:37;99396.84;;;6.52;86.43
77124;BME280;66079;47.646;19.130;2023-04-15T02:27:39;99392.88;;;6.49;86.42
77124;BME280;66079;47.646;19.130;2023-04-15T02:30:42;99383.75;;;6.53;86.67
77124;BME280;66079;47.646;19.130;2023-04-15T02:33:44;99398.66;;;6.58;86.58
77124;BME280;66079;47.646;19.130;2023-04-15T02:36:47;99396.06;;;6.58;86.08
77124;BME280;66079;47.646;19.130;2023-04-15T02:39:51;99388.72;;;6.48;86.32
77124;BME280;66079;47.646;19.130;2023-04-15T02:42:53;99376.41;;;6.44;85.94
77124;BME280;66079;47.646;19.130;2023-04-15T02:45:56;99393.69;;;6.50;86.44
77124;BME280;66079;47.646;19.130;2023-04-15T02:48:59;99391.31;;;6.48;86.74
77124;BME280;66079;47.646;19.130;2023-04-15T02:52:02;99390.91;;;6.51;86.84
77124;BME280;66079;47.646;19.130;2023-04-15T02:55:05;99395.66;;;6.61;86.44
77124;BME280;66079;47.646;19.130;2023-04-15T02:58:07;99395.47;;;6.69;86.28
77124;BME280;66079;47.646;19.130;2023-04-15T03:01:10;99394.06;;;6.80;85.66
77124;BME280;66079;47.646;19.130;2023-04-15T03:04:13;99403.81;;;6.78;85.46
77124;BME280;66079;47.646;19.130;2023-04-15T03:07:17;99399.44;;;6.65;86.82
77124;BME280;66079;47.646;19.130;2023-04-15T03:10:20;99397.66;;;6.65;86.66
77124;BME280;66079;47.646;19.130;2023-04-15T03:13:23;99411.75;;;6.69;86.53
77124;BME280;66079;47.646;19.130;2023-04-15T03:16:27;99388.31;;;6.58;86.86
77124;BME280;66079;47.646;19.130;2023-04-15T03:19:30;99388.31;;;6.64;87.30
77124;BME280;66079;47.646;19.130;2023-04-15T03:22:33;99377.00;;;6.52;87.65
77124;BME280;66079;47.646;19.130;2023-04-15T03:25:37;99396.06;;;6.71;87.59
77124;BME280;66079;47.646;19.130;2023-04-15T03:28:41;99397.66;;;6.59;87.64
77124;BME280;66079;47.646;19.130;2023-04-15T03:31:44;99383.38;;;6.50;88.29
77124;BME280;66079;47.646;19.130;2023-04-15T03:34:46;99390.50;;;6.61;88.60
77124;BME280;66079;47.646;19.130;2023-04-15T03:37:49;99385.13;;;6.62;88.31
77124;BME280;66079;47.646;19.130;2023-04-15T03:40:52;99396.66;;;6.66;87.92
77124;BME280;66079;47.646;19.130;2023-04-15T03:43:55;99392.69;;;6.70;88.41
77124;BME280;66079;47.646;19.130;2023-04-15T03:46:58;99391.28;;;6.74;88.36
77124;BME280;66079;47.646;19.130;2023-04-15T03:50:00;99388.91;;;6.80;88.00
77124;BME280;66079;47.646;19.130;2023-04-15T03:53:03;99398.03;;;6.89;87.77
77124;BME280;66079;47.646;19.130;2023-04-15T03:56:06;99404.19;;;6.88;87.36
77124;BME280;66079;47.646;19.130;2023-04-15T03:59:08;99409.56;;;6.80;87.62
77124;BME280;66079;47.646;19.130;2023-04-15T04:02:11;99392.06;;;6.68;87.77
77124;BME280;66079;47.646;19.130;2023-04-15T04:05:13;99400.22;;;6.72;87.74
77124;BME280;66079;47.646;19.130;2023-04-15T04:08:16;99404.00;;;6.89;87.21
77124;BME280;66079;47.646;19.130;2023-04-15T04:11:20;99401.81;;;6.93;86.99
77124;BME280;66079;47.646;19.130;2023-04-15T04:14:23;99379.34;;;6.80;87.09
77124;BME280;66079;47.646;19.130;2023-04-15T04:17:30;99402.97;;;6.90;87.68
77124;BME280;66079;47.646;19.130;2023-04-15T04:20:33;99392.84;;;6.95;86.83
77124;BME280;66079;47.646;19.130;2023-04-15T04:23:36;99385.09;;;6.95;87.14
77124;BME280;66079;47.646;19.130;2023-04-15T04:26:39;99387.88;;;7.00;86.86
77124;BME280;66079;47.646;19.130;2023-04-15T04:29:42;99396.59;;;7.12;87.22
77124;BME280;66079;47.646;19.130;2023-04-15T04:32:44;99382.09;;;7.05;87.06
77124;BME280;66079;47.646;19.130;2023-04-15T04:35:47;99398.16;;;7.20;87.02
77124;BME280;66079;47.646;19.130;2023-04-15T04:38:50;99403.91;;;7.28;87.07
77124;BME280;66079;47.646;19.130;2023-04-15T04:41:52;99401.75;;;7.19;87.26
77124;BME280;66079;47.646;19.130;2023-04-15T04:44:55;99385.25;;;7.13;87.23
77124;BME280;66079;47.646;19.130;2023-04-15T04:47:58;99400.94;;;7.25;87.31
77124;BME280;66079;47.646;19.130;2023-04-15T04:51:00;99401.72;;;7.25;86.59
77124;BME280;66079;47.646;19.130;2023-04-15T04:54:03;99396.53;;;7.32;86.32
77124;BME280;66079;47.646;19.130;2023-04-15T04:57:06;99393.91;;;7.45;85.28
77124;BME280;66079;47.646;19.130;2023-04-15T05:00:09;99409.53;;;7.69;83.92
77124;BME280;66079;47.646;19.130;2023-04-15T05:03:13;99409.69;;;7.74;84.22
77124;BME280;66079;47.646;19.130;2023-04-15T05:06:16;99396.91;;;7.86;84.13
77124;BME280;66079;47.646;19.130;2023-04-15T05:09:18;99396.78;;;8.05;84.08
77124;BME280;66079;47.646;19.130;2023-04-15T05:12:21;99385.88;;;7.97;82.86
77124;BME280;66079;47.646;19.130;2023-04-15T05:15:23;99391.50;;;8.25;82.75
77124;BME280;66079;47.646;19.130;2023-04-15T05:18:26;99390.44;;;8.33;83.00
77124;BME280;66079;47.646;19.130;2023-04-15T05:21:29;99391.69;;;8.55;81.77
77124;BME280;66079;47.646;19.130;2023-04-15T05:24:32;99368.75;;;8.58;81.22
77124;BME280;66079;47.646;19.130;2023-04-15T05:27:35;99380.22;;;8.87;80.16
77124;BME280;66079;47.646;19.130;2023-04-15T05:30:38;99373.59;;;8.73;80.18
77124;BME280;66079;47.646;19.130;2023-04-15T05:33:41;99394.19;;;8.86;80.64
77124;BME280;66079;47.646;19.130;2023-04-15T05:36:44;99390.81;;;8.85;80.51
77124;BME280;66079;47.646;19.130;2023-04-15T05:39:46;99403.16;;;9.08;79.68
77124;BME280;66079;47.646;19.130;2023-04-15T05:42:49;99400.66;;;9.19;79.04
77124;BME280;66079;47.646;19.130;2023-04-15T05:45:52;99395.25;;;9.39;78.77
77124;BME280;66079;47.646;19.130;2023-04-15T05:48:55;99406.44;;;9.69;78.38
77124;BME280;66079;47.646;19.130;2023-04-15T05:51:58;99414.22;;;9.69;77.14
77124;BME280;66079;47.646;19.130;2023-04-15T05:55:00;99417.00;;;9.86;77.19
77124;BME280;66079;47.646;19.130;2023-04-15T05:58:03;99401.63;;;9.73;77.21
77124;BME280;66079;47.646;19.130;2023-04-15T06:01:05;99413.63;;;9.56;78.39
77124;BME280;66079;47.646;19.130;2023-04-15T06:04:08;99411.44;;;9.53;78.42
77124;BME280;66079;47.646;19.130;2023-04-15T06:07:11;99419.34;;;9.58;78.68
77124;BME280;66079;47.646;19.130;2023-04-15T06:10:14;99429.03;;;9.51;77.88
77124;BME280;66079;47.646;19.130;2023-04-15T06:13:17;99435.88;;;9.45;78.96
77124;BME280;66079;47.646;19.130;2023-04-15T06:16:19;99437.06;;;9.79;78.02
77124;BME280;66079;47.646;19.130;2023-04-15T06:19:22;99427.72;;;10.07;76.23
77124;BME280;66079;47.646;19.130;2023-04-15T06:22:26;99425.16;;;9.89;77.42
77124;BME280;66079;47.646;19.130;2023-04-15T06:25:28;99436.16;;;9.73;78.27
77124;BME280;66079;47.646;19.130;2023-04-15T06:28:31;99432.38;;;9.69;78.21
77124;BME280;66079;47.646;19.130;2023-04-15T06:31:33;99443.94;;;9.55;78.33
77124;BME280;66079;47.646;19.130;2023-04-15T06:34:36;99442.00;;;9.69;77.89
77124;BME280;66079;47.646;19.130;2023-04-15T06:37:38;99441.91;;;9.75;76.85
77124;BME280;66079;47.646;19.130;2023-04-15T06:40:41;99442.06;;;9.80;77.06
77124;BME280;66079;47.646;19.130;2023-04-15T06:43:44;99448.25;;;9.79;77.54
77124;BME280;66079;47.646;19.130;2023-04-15T06:46:46;99453.91;;;10.06;76.76
77124;BME280;66079;47.646;19.130;2023-04-15T06:49:48;99442.44;;;9.95;76.36
77124;BME280;66079;47.646;19.130;2023-04-15T06:52:52;99453.22;;;10.28;76.20
77124;BME280;66079;47.646;19.130;2023-04-15T06:55:55;99437.53;;;10.35;74.94
77124;BME280;66079;47.646;19.130;2023-04-15T06:58:58;99464.38;;;10.58;74.48
77124;BME280;66079;47.646;19.130;2023-04-15T07:02:01;99460.25;;;10.39;73.61
77124;BME280;66079;47.646;19.130;2023-04-15T07:05:05;99463.63;;;10.40;74.05
77124;BME280;66079;47.646;19.130;2023-04-15T07:08:08;99462.19;;;10.44;74.00
77124;BME280;66079;47.646;19.130;2023-04-15T07:11:10;99476.97;;;10.43;73.76
77124;BME280;66079;47.646;19.130;2023-04-15T07:14:13;99468.03;;;10.39;73.05
77124;BME280;66079;47.646;19.130;2023-04-15T07:17:16;99467.44;;;10.67;73.03
77124;BME280;66079;47.646;19.130;2023-04-15T07:20:18;99469.41;;;10.95;71.63
77124;BME280;66079;47.646;19.130;2023-04-15T07:23:21;99468.13;;;11.20;69.77
77124;BME280;66079;47.646;19.130;2023-04-15T07:26:24;99474.03;;;11.16;70.40
77124;BME280;66079;47.646;19.130;2023-04-15T07:29:27;99467.38;;;11.20;70.38
77124;BME280;66079;47.646;19.130;2023-04-15T07:32:29;99452.88;;;11.01;70.62
77124;BME280;66079;47.646;19.130;2023-04-15T07:35:32;99478.31;;;11.10;69.46
77124;BME280;66079;47.646;19.130;2023-04-15T07:38:35;99476.63;;;11.16;70.24
77124;BME280;66079;47.646;19.130;2023-04-15T07:41:38;99479.00;;;11.06;70.36
77124;BME280;66079;47.646;19.130;2023-04-15T07:44:41;99471.31;;;11.34;69.74
77124;BME280;66079;47.646;19.130;2023-04-15T07:47:44;99485.34;;;11.33;69.34
77124;BME280;66079;47.646;19.130;2023-04-15T07:50:47;99469.41;;;11.18;69.48
77124;BME280;66079;47.646;19.130;2023-04-15T07:53:50;99475.16;;;10.85;69.91
77124;BME280;66079;47.646;19.130;2023-04-15T07:56:53;99486.00;;;11.28;69.39
77124;BME280;66079;47.646;19.130;2023-04-15T07:59:55;99492.00;;;11.52;68.58
77124;BME280;66079;47.646;19.130;2023-04-15T08:02:57;99486.44;;;11.48;67.58
77124;BME280;66079;47.646;19.130;2023-04-15T08:06:01;99481.47;;;11.35;67.63
77124;BME280;66079;47.646;19.130;2023-04-15T08:09:03;99495.63;;;11.74;67.51
77124;BME280;66079;47.646;19.130;2023-04-15T08:12:06;99474.22;;;12.12;65.75
77124;BME280;66079;47.646;19.130;2023-04-15T08:15:10;99494.44;;;12.21;65.74
77124;BME280;66079;47.646;19.130;2023-04-15T08:18:14;99498.19;;;12.14;65.55
77124;BME280;66079;47.646;19.130;2023-04-15T08:21:18;99481.44;;;12.21;64.11
77124;BME280;66079;47.646;19.130;2023-04-15T08:24:23;99487.72;;;12.25;63.39
77124;BME280;66079;47.646;19.130;2023-04-15T08:27:27;99481.69;;;12.36;62.54
77124;BME280;66079;47.646;19.130;2023-04-15T08:30:29;99508.38;;;12.43;61.95
77124;BME280;66079;47.646;19.130;2023-04-15T08:33:32;99487.97;;;12.68;62.51
77124;BME280;66079;47.646;19.130;2023-04-15T08:36:34;99485.81;;;12.49;61.09
77124;BME280;66079;47.646;19.130;2023-04-15T08:39:37;99494.22;;;12.67;60.05
77124;BME280;66079;47.646;19.130;2023-04-15T08:42:43;99487.91;;;13.29;58.13
77124;BME280;66079;47.646;19.130;2023-04-15T08:45:49;99498.22;;;13.58;57.15
77124;BME280;66079;47.646;19.130;2023-04-15T08:48:56;99495.25;;;13.92;55.78
77124;BME280;66079;47.646;19.130;2023-04-15T08:51:59;99487.94;;;13.51;54.90
77124;BME280;66079;47.646;19.130;2023-04-15T08:55:02;99504.28;;;14.06;54.30
77124;BME280;66079;47.646;19.130;2023-04-15T08:58:06;99487.59;;;13.86;54.90
77124;BME280;66079;47.646;19.130;2023-04-15T09:01:13;99488.25;;;13.98;54.76
77124;BME280;66079;47.646;19.130;2023-04-15T09:04:16;99487.88;;;14.11;54.10
77124;BME280;66079;47.646;19.130;2023-04-15T09:07:19;99487.59;;;13.86;53.81
77124;BME280;66079;47.646;19.130;2023-04-15T09:10:22;99491.44;;;13.40;55.23
77124;BME280;66079;47.646;19.130;2023-04-15T09:13:25;99496.22;;;12.93;57.18
77124;BME280;66079;47.646;19.130;2023-04-15T09:16:28;99497.66;;;12.40;57.63
77124;BME280;66079;47.646;19.130;2023-04-15T09:19:31;99492.38;;;12.68;56.08
77124;BME280;66079;47.646;19.130;2023-04-15T09:22:35;99491.00;;;12.93;56.17
77124;BME280;66079;47.646;19.130;2023-04-15T09:25:39;99501.34;;;13.60;54.54
77124;BME280;66079;47.646;19.130;2023-04-15T09:28:46;99499.72;;;13.54;55.96
77124;BME280;66079;47.646;19.130;2023-04-15T09:31:48;99493.53;;;14.03;53.37
77124;BME280;66079;47.646;19.130;2023-04-15T09:34:52;99484.25;;;14.38;51.80
77124;BME280;66079;47.646;19.130;2023-04-15T09:38:05;99495.47;;;14.12;52.64
77124;BME280;66079;47.646;19.130;2023-04-15T09:41:16;99481.56;;;13.85;53.83
77124;BME280;66079;47.646;19.130;2023-04-15T09:44:24;99487.56;;;14.29;52.18
77124;BME280;66079;47.646;19.130;2023-04-15T09:47:28;99473.56;;;14.72;51.20
77124;BME280;66079;47.646;19.130;2023-04-15T09:50:40;99484.22;;;14.12;51.86
77124;BME280;66079;47.646;19.130;2023-04-15T09:53:42;99485.25;;;14.11;52.27
77124;BME280;66079;47.646;19.130;2023-04-15T09:56:45;99491.06;;;14.66;51.31
77124;BME280;66079;47.646;19.130;2023-04-15T09:59:49;99487.91;;;14.37;50.74
77124;BME280;66079;47.646;19.130;2023-04-15T10:02:52;99477.09;;;14.29;51.23
77124;BME280;66079;47.646;19.130;2023-04-15T10:05:57;99485.06;;;14.39;51.71
77124;BME280;66079;47.646;19.130;2023-04-15T10:09:00;99483.84;;;13.38;52.80
77124;BME280;66079;47.646;19.130;2023-04-15T10:12:04;99487.53;;;13.59;53.06
77124;BME280;66079;47.646;19.130;2023-04-15T10:15:12;99497.91;;;13.54;53.03
77124;BME280;66079;47.646;19.130;2023-04-15T10:18:18;99486.19;;;13.18;54.53
77124;BME280;66079;47.646;19.130;2023-04-15T10:21:21;99496.94;;;13.82;52.89
77124;BME280;66079;47.646;19.130;2023-04-15T10:24:25;99479.13;;;14.22;52.03
77124;BME280;66079;47.646;19.130;2023-04-15T10:27:29;99489.94;;;15.72;49.09
77124;BME280;66079;47.646;19.130;2023-04-15T10:30:32;99478.88;;;15.18;48.75
77124;BME280;66079;47.646;19.130;2023-04-15T10:33:35;99480.03;;;13.89;51.44
77124;BME280;66079;47.646;19.130;2023-04-15T10:36:40;99484.78;;;13.49;52.24
77124;BME280;66079;47.646;19.130;2023-04-15T10:39:43;99492.28;;;14.32;51.78
77124;BME280;66079;47.646;19.130;2023-04-15T10:42:45;99496.19;;;14.56;49.93
77124;BME280;66079;47.646;19.130;2023-04-15T10:45:48;99495.22;;;14.14;53.13
77124;BME280;66079;47.646;19.130;2023-04-15T10:48:52;99490.66;;;13.40;55.27
77124;BME280;66079;47.646;19.130;2023-04-15T10:51:58;99484.50;;;12.79;56.57
77124;BME280;66079;47.646;19.130;2023-04-15T10:58:12;99507.66;;;12.59;57.54
77124;BME280;66079;47.646;19.130;2023-04-15T11:01:18;99512.91;;;14.82;52.60
77124;BME280;66079;47.646;19.130;2023-04-15T11:04:55;99519.38;;;15.42;50.84
77124;BME280;66079;47.646;19.130;2023-04-15T11:07:59;99533.41;;;14.15;54.45
77124;BME280;66079;47.646;19.130;2023-04-15T11:11:02;99517.88;;;13.27;56.22
77124;BME280;66079;47.646;19.130;2023-04-15T11:14:04;99510.88;;;14.09;53.46
77124;BME280;66079;47.646;19.130;2023-04-15T11:17:07;99520.13;;;15.38;49.51
77124;BME280;66079;47.646;19.130;2023-04-15T11:20:14;99510.31;;;14.55;50.29
77124;BME280;66079;47.646;19.130;2023-04-15T11:23:18;99528.06;;;14.05;53.54
77124;BME280;66079;47.646;19.130;2023-04-15T11:26:25;99539.81;;;13.64;56.27
77124;BME280;66079;47.646;19.130;2023-04-15T11:29:30;99528.47;;;13.04;58.42
77124;BME280;66079;47.646;19.130;2023-04-15T11:32:34;99527.34;;;12.83;60.11
77124;BME280;66079;47.646;19.130;2023-04-15T11:35:37;99536.91;;;12.50;61.35
77124;BME280;66079;47.646;19.130;2023-04-15T11:38:43;99541.28;;;12.89;60.76
77124;BME280;66079;47.646;19.130;2023-04-15T11:41:46;99542.72;;;13.13;59.54
77124;BME280;66079;47.646;19.130;2023-04-15T11:44:49;99534.69;;;12.02;62.80
77124;BME280;66079;47.646;19.130;2023-04-15T11:47:52;99536.63;;;15.02;54.75
77124;BME280;66079;47.646;19.130;2023-04-15T11:50:57;99537.38;;;15.75;51.59
77124;BME280;66079;47.646;19.130;2023-04-15T11:54:00;99518.72;;;14.89;54.60
77124;BME280;66079;47.646;19.130;2023-04-15T11:57:02;99538.16;;;14.66;53.63
77124;BME280;66079;47.646;19.130;2023-04-15T12:00:06;99539.25;;;14.75;51.93
77124;BME280;66079;47.646;19.130;2023-04-15T12:06:23;99540.16;;;14.59;53.52
77124;BME280;66079;47.646;19.130;2023-04-15T12:09:26;99534.94;;;15.22;49.66
77124;BME280;66079;47.646;19.130;2023-04-15T12:12:29;99549.00;;;16.76;46.57
77124;BME280;66079;47.646;19.130;2023-04-15T12:15:32;99548.22;;;14.79;50.48
77124;BME280;66079;47.646;19.130;2023-04-15T12:18:37;99535.94;;;15.16;49.12
77124;BME280;66079;47.646;19.130;2023-04-15T12:21:43;99541.72;;;15.18;48.45
77124;BME280;66079;47.646;19.130;2023-04-15T12:24:45;99540.41;;;14.31;50.66
77124;BME280;66079;47.646;19.130;2023-04-15T12:27:50;99546.25;;;15.64;47.16
77124;BME280;66079;47.646;19.130;2023-04-15T12:30:54;99554.94;;;16.37;44.99
77124;BME280;66079;47.646;19.130;2023-04-15T12:33:57;99549.44;;;15.76;46.31
77124;BME280;66079;47.646;19.130;2023-04-15T12:37:03;99557.66;;;16.72;44.76
77124;BME280;66079;47.646;19.130;2023-04-15T12:40:07;99558.88;;;16.39;44.91
77124;BME280;66079;47.646;19.130;2023-04-15T12:43:10;99544.00;;;15.10;49.28
77124;BME280;66079;47.646;19.130;2023-04-15T12:46:12;99553.44;;;15.42;48.54
77124;BME280;66079;47.646;19.130;2023-04-15T12:49:15;99559.75;;;14.56;51.78
77124;BME280;66079;47.646;19.130;2023-04-15T12:52:20;99545.78;;;13.81;52.99
77124;BME280;66079;47.646;19.130;2023-04-15T12:55:23;99561.50;;;13.48;54.36
77124;BME280;66079;47.646;19.130;2023-04-15T12:58:25;99557.91;;;13.16;55.19
77124;BME280;66079;47.646;19.130;2023-04-15T13:01:28;99562.00;;;13.28;55.79
77124;BME280;66079;47.646;19.130;2023-04-15T13:04:31;99562.81;;;13.12;56.95
77124;BME280;66079;47.646;19.130;2023-04-15T13:07:34;99573.19;;;12.96;57.58
77124;BME280;66079;47.646;19.130;2023-04-15T13:10:37;99575.31;;;12.82;58.61
77124;BME280;66079;47.646;19.130;2023-04-15T13:13:40;99575.59;;;12.69;58.05
77124;BME280;66079;47.646;19.130;2023-04-15T13:16:42;99581.78;;;13.24;57.53
77124;BME280;66079;47.646;19.130;2023-04-15T13:19:45;99564.59;;;13.12;56.68
77124;BME280;66079;47.646;19.130;2023-04-15T13:22:47;99586.28;;;13.12;56.11
77124;BME280;66079;47.646;19.130;2023-04-15T13:25:50;99558.22;;;13.19;55.27
77124;BME280;66079;47.646;19.130;2023-04-15T13:28:53;99577.09;;;13.60;54.17
77124;BME280;66079;47.646;19.130;2023-04-15T13:31:55;99565.78;;;15.93;48.22
77124;BME280;66079;47.646;19.130;2023-04-15T13:34:58;99568.19;;;16.97;44.13
77124;BME280;66079;47.646;19.130;2023-04-15T13:38:01;99572.28;;;15.13;49.62
77124;BME280;66079;47.646;19.130;2023-04-15T13:41:03;99583.41;;;14.45;52.36
77124;BME280;66079;47.646;19.130;2023-04-15T13:44:06;99582.56;;;14.18;52.69
77124;BME280;66079;47.646;19.130;2023-04-15T13:47:09;99580.38;;;14.10;53.60
77124;BME280;66079;47.646;19.130;2023-04-15T13:50:12;99592.09;;;13.86;54.33
77124;BME280;66079;47.646;19.130;2023-04-15T13:53:15;99581.34;;;13.82;54.28
77124;BME280;66079;47.646;19.130;2023-04-15T13:56:17;99590.97;;;14.20;53.65
77124;BME280;66079;47.646;19.130;2023-04-15T13:59:21;99598.78;;;13.98;53.48
77124;BME280;66079;47.646;19.130;2023-04-15T14:02:23;99596.44;;;13.80;54.42
77124;BME280;66079;47.646;19.130;2023-04-15T14:05:26;99590.63;;;13.57;55.66
77124;BME280;66079;47.646;19.130;2023-04-15T14:08:29;99609.47;;;13.25;56.93
77124;BME280;66079;47.646;19.130;2023-04-15T14:11:32;99588.59;;;12.97;56.98
77124;BME280;66079;47.646;19.130;2023-04-15T14:14:36;99603.91;;;13.05;57.28
77124;BME280;66079;47.646;19.130;2023-04-15T14:17:39;99589.03;;;13.06;58.62
77124;BME280;66079;47.646;19.130;2023-04-15T14:20:43;99603.53;;;13.13;57.67
77124;BME280;66079;47.646;19.130;2023-04-15T14:23:46;99612.38;;;12.84;57.71
77124;BME280;66079;47.646;19.130;2023-04-15T14:26:48;99601.91;;;12.68;58.07
77124;BME280;66079;47.646;19.130;2023-04-15T14:29:51;99606.34;;;12.28;59.41
77124;BME280;66079;47.646;19.130;2023-04-15T14:32:55;99604.34;;;12.58;58.80
77124;BME280;66079;47.646;19.130;2023-04-15T14:35:58;99622.78;;;12.28;59.50
77124;BME280;66079;47.646;19.130;2023-04-15T14:39:00;99610.16;;;12.37;59.75
77124;BME280;66079;47.646;19.130;2023-04-15T14:42:03;99617.56;;;12.40;60.00
77124;BME280;66079;47.646;19.130;2023-04-15T14:45:06;99618.88;;;12.42;59.96
77124;BME280;66079;47.646;19.130;2023-04-15T14:48:08;99625.03;;;12.36;60.70
77124;BME280;66079;47.646;19.130;2023-04-15T14:51:11;99620.59;;;12.37;60.97
77124;BME280;66079;47.646;19.130;2023-04-15T14:54:14;99625.00;;;12.48;60.78
77124;BME280;66079;47.646;19.130;2023-04-15T14:57:16;99637.97;;;12.87;60.27
77124;BME280;66079;47.646;19.130;2023-04-15T15:00:19;99632.06;;;13.03;60.33
77124;BME280;66079;47.646;19.130;2023-04-15T15:03:22;99628.03;;;12.84;60.09
77124;BME280;66079;47.646;19.130;2023-04-15T15:06:25;99637.53;;;12.90;61.31
77124;BME280;66079;47.646;19.130;2023-04-15T15:09:28;99633.44;;;12.94;60.51
77124;BME280;66079;47.646;19.130;2023-04-15T15:12:31;99630.00;;;12.94;60.55
77124;BME280;66079;47.646;19.130;2023-04-15T15:15:35;99638.94;;;12.81;60.96
77124;BME280;66079;47.646;19.130;2023-04-15T15:18:39;99639.91;;;12.92;60.60
77124;BME280;66079;47.646;19.130;2023-04-15T15:21:41;99629.63;;;12.85;60.89
77124;BME280;66079;47.646;19.130;2023-04-15T15:24:44;99653.63;;;12.87;61.42
77124;BME280;66079;47.646;19.130;2023-04-15T15:27:47;99654.66;;;12.86;61.60
77124;BME280;66079;47.646;19.130;2023-04-15T15:30:50;99662.97;;;12.83;61.73
77124;BME280;66079;47.646;19.130;2023-04-15T15:33:52;99653.78;;;12.81;61.83
77124;BME280;66079;47.646;19.130;2023-04-15T15:36:55;99655.75;;;12.34;62.44
77124;BME280;66079;47.646;19.130;2023-04-15T15:39:58;99657.34;;;12.24;62.71
77124;BME280;66079;47.646;19.130;2023-04-15T15:43:02;99667.09;;;12.28;63.07
77124;BME280;66079;47.646;19.130;2023-04-15T15:46:05;99646.56;;;12.20;63.23
77124;BME280;66079;47.646;19.130;2023-04-15T15:49:08;99665.72;;;12.26;62.78
77124;BME280;66079;47.646;19.130;2023-04-15T15:52:11;99674.31;;;12.38;63.10
77124;BME280;66079;47.646;19.130;2023-04-15T15:55:13;99682.03;;;12.21;63.15
77124;BME280;66079;47.646;19.130;2023-04-15T15:58:16;99664.50;;;12.05;63.14
77124;BME280;66079;47.646;19.130;2023-04-15T16:01:19;99691.00;;;12.02;63.07
77124;BME280;66079;47.646;19.130;2023-04-15T16:04:21;99687.59;;;11.78;62.68
77124;BME280;66079;47.646;19.130;2023-04-15T16:07:24;99700.50;;;11.73;62.82
77124;BME280;66079;47.646;19.130;2023-04-15T16:10:27;99707.69;;;11.19;65.17